Time;durP1;ratioP1;P1;durP2;ratioP2;P2;SDS_P1;SDS_P2;PMS_P1;PMS_P2;Temp;Humidity;BMP_temperature;BMP_pressure;BME280_temperature;BME280_humidity;BME280_pressure;Samples;Min_cycle;Max_cycle;Signal;HPM_P1;HPM_P2
2023/08/18 07:04:57;;;;;;;11.77;8.30;;;22.70;99.90;;;;;;5277251;23;20335;-78
2023/08/18 07:35:29;;;;;;;11.07;7.93;;;23.80;99.90;;;;;;4857400;29;20185;-78
2023/08/18 07:37:57;;;;;;;13.80;7.88;;;23.90;99.90;;;;;;4844551;29;20274;-78
2023/08/18 07:40:38;;;;;;;8.70;7.43;;;23.80;99.90;;;;;;4838479;29;20202;-76
2023/08/18 07:43:11;;;;;;;8.82;7.38;;;24.00;99.90;;;;;;4823661;29;20205;-78
2023/08/18 09:19:24;;;;;;;;;;;;;;;;;;;;;
2023/08/18 09:36:00;;;;;;;8.35;6.82;;;33.40;99.90;;;;;;5511679;23;20238;-81
2023/08/18 09:38:46;;;;;;;9.05;7.25;;;33.40;99.90;;;;;;4917933;29;20228;-79
2023/08/18 09:41:25;;;;;;;12.82;7.93;;;33.60;99.90;;;;;;4917617;29;20664;-84
2023/08/18 09:44:04;;;;;;;18.02;8.80;;;33.70;99.90;;;;;;4903005;29;20655;-84
2023/08/18 09:46:36;;;;;;;12.20;8.48;;;33.80;99.90;;;;;;4917272;29;20215;-87
2023/08/18 09:49:20;;;;;;;10.13;8.00;;;33.80;99.90;;;;;;4917838;29;20264;-76
2023/08/18 09:52:28;;;;;;;8.93;7.60;;;34.00;99.90;;;;;;4916168;29;20295;-77
2023/08/18 09:55:14;;;;;;;9.52;7.55;;;33.90;99.90;;;;;;4918466;29;20203;-76
2023/08/18 09:57:56;;;;;;;11.80;8.20;;;34.10;99.90;;;;;;4916909;29;20238;-80
2023/08/18 10:00:39;;;;;;;9.68;7.55;;;34.10;99.90;;;;;;4902053;29;20196;-80
2023/08/18 10:03:24;;;;;;;12.38;7.35;;;34.30;99.90;;;;;;4916698;29;20614;-78
2023/08/18 10:05:52;;;;;;;9.50;7.43;;;34.30;99.90;;;;;;4915759;29;20195;-79
2023/08/18 10:08:52;;;;;;;12.55;7.60;;;34.20;99.90;;;;;;4916524;29;20322;-79
2023/08/18 10:11:20;;;;;;;14.73;7.00;;;34.60;99.90;;;;;;4916133;29;20203;-78
2023/08/18 10:13:55;;;;;;;8.63;7.10;;;34.40;99.90;;;;;;4915104;29;20664;-79
2023/08/18 10:16:37;;;;;;;9.20;6.72;;;34.50;99.90;;;;;;4917042;29;20196;-76
2023/08/18 10:19:10;;;;;;;8.90;7.22;;;34.80;99.90;;;;;;4916528;29;20291;-77
2023/08/18 10:21:44;;;;;;;8.13;6.28;;;34.80;99.90;;;;;;4917604;29;20283;-77
2023/08/18 10:24:19;;;;;;;10.52;6.20;;;34.80;99.90;;;;;;4916682;29;20203;-79
2023/08/18 10:26:51;;;;;;;10.40;6.15;;;35.10;99.90;;;;;;4916553;29;20191;-80
2023/08/18 10:29:29;;;;;;;6.85;5.80;;;35.00;99.90;;;;;;4917318;29;20223;-81
2023/08/18 10:32:12;;;;;;;8.05;6.10;;;34.90;99.90;;;;;;4914748;29;20231;-77
2023/08/18 10:34:51;;;;;;;8.27;5.93;;;35.20;99.90;;;;;;4914938;29;20251;-78
2023/08/18 10:37:22;;;;;;;10.25;5.55;;;35.50;99.90;;;;;;4914226;29;20358;-88
2023/08/18 10:39:52;;;;;;;8.40;5.78;;;35.70;98.30;;;;;;4884538;29;687151;-85
2023/08/18 10:42:26;;;;;;;6.15;5.45;;;35.80;99.00;;;;;;4882155;29;20184;-87
2023/08/18 10:46:43;;;;;;;6.45;5.50;;;35.70;97.90;;;;;;5092227;27;20304;-86
2023/08/18 10:49:14;;;;;;;10.73;5.68;;;36.20;97.20;;;;;;5088106;28;20197;-88
2023/08/18 10:52:13;;;;;;;7.68;5.05;;;36.60;97.40;;;;;;5083668;28;20214;-82
2023/08/18 10:54:45;;;;;;;7.80;5.10;;;36.60;94.60;;;;;;5067283;28;20344;-87
2023/08/18 10:57:19;;;;;;;6.95;4.80;;;36.60;96.00;;;;;;5068912;28;20384;-84
2023/08/18 10:59:51;;;;;;;6.10;4.93;;;36.50;95.20;;;;;;5069169;28;20679;-76
2023/08/18 11:02:35;;;;;;;5.82;5.05;;;36.90;95.00;;;;;;5068428;28;20264;-77
2023/08/18 11:05:10;;;;;;;6.65;4.90;;;37.30;94.40;;;;;;5069109;28;20213;-79
2023/08/18 11:07:48;;;;;;;11.52;6.00;;;37.30;93.40;;;;;;5067527;28;20211;-78
2023/08/18 11:10:40;;;;;;;12.73;5.68;;;37.30;93.00;;;;;;5068084;28;20217;-77
2023/08/18 11:13:25;;;;;;;12.55;5.45;;;37.20;93.00;;;;;;5068627;28;20197;-78
2023/08/18 11:16:02;;;;;;;8.65;5.55;;;37.00;92.00;;;;;;5068903;28;20209;-77
2023/08/18 11:18:31;;;;;;;9.35;5.38;;;36.80;92.00;;;;;;5068540;28;20239;-83
2023/08/18 11:21:10;;;;;;;15.13;5.53;;;37.10;91.70;;;;;;5068944;28;20220;-80
2023/08/18 11:23:43;;;;;;;6.55;4.93;;;37.50;90.40;;;;;;5068061;28;20202;-82
2023/08/18 11:26:27;;;;;;;8.63;5.40;;;37.70;89.70;;;;;;5068869;28;20210;-75
2023/08/18 11:29:01;;;;;;;7.97;5.13;;;38.30;90.00;;;;;;5068529;28;20263;-85
2023/08/18 11:31:48;;;;;;;8.80;5.63;;;38.50;85.70;;;;;;5068363;28;20273;-82
2023/08/18 11:34:20;;;;;;;6.25;4.90;;;37.90;86.20;;;;;;5068564;28;20550;-75
2023/08/18 11:36:47;;;;;;;7.28;5.13;;;37.90;86.20;;;;;;5067866;28;20268;-76
2023/08/18 11:39:17;;;;;;;5.47;4.80;;;37.90;84.80;;;;;;5068189;28;20272;-76
2023/08/18 11:42:02;;;;;;;5.93;4.78;;;38.00;81.50;;;;;;5067994;28;20656;-78
2023/08/18 11:44:37;;;;;;;7.97;5.00;;;38.30;85.00;;;;;;5067690;28;20249;-77
2023/08/18 11:47:23;;;;;;;10.90;5.15;;;38.30;83.60;;;;;;5067735;28;20194;-79
2023/08/18 11:49:56;;;;;;;8.68;4.88;;;38.80;81.50;;;;;;5067866;28;20601;-77
2023/08/18 11:52:41;;;;;;;13.23;5.40;;;39.10;81.00;;;;;;5066883;28;20202;-78
2023/08/18 11:55:16;;;;;;;10.95;5.03;;;39.60;82.10;;;;;;5067684;28;20205;-76
2023/08/18 11:57:48;;;;;;;6.10;4.93;;;39.70;80.60;;;;;;5054976;28;20182;-79
2023/08/18 12:00:20;;;;;;;6.15;4.78;;;39.80;77.20;;;;;;5036028;28;20626;-77
2023/08/18 12:02:55;;;;;;;17.73;5.60;;;39.50;76.20;;;;;;5054871;28;20269;-77
2023/08/18 12:05:26;;;;;;;12.70;5.30;;;39.70;76.20;;;;;;5054234;28;20223;-77
2023/08/18 12:08:08;;;;;;;11.43;5.00;;;40.10;75.70;;;;;;5054399;28;20218;-77
2023/08/18 12:10:48;;;;;;;10.48;4.90;;;40.40;74.40;;;;;;5036581;28;20638;-78
2023/08/18 12:13:31;;;;;;;5.90;4.40;;;40.60;73.60;;;;;;5053102;28;20199;-79
2023/08/18 12:16:02;;;;;;;7.00;4.60;;;40.70;72.30;;;;;;5054196;28;20179;-79
2023/08/18 12:18:34;;;;;;;5.10;4.60;;;40.70;72.70;;;;;;5054231;28;20203;-78
2023/08/18 12:21:18;;;;;;;4.65;4.25;;;40.60;70.60;;;;;;5053863;28;20282;-77
2023/08/18 12:24:03;;;;;;;11.27;4.80;;;40.50;69.00;;;;;;5053941;28;20183;-79
2023/08/18 12:26:38;;;;;;;5.40;4.65;;;40.20;67.20;;;;;;5052493;28;20218;-77
2023/08/18 12:29:18;;;;;;;9.60;5.25;;;39.60;71.00;;;;;;5052232;28;20203;-80
2023/08/18 12:32:01;;;;;;;6.78;4.78;;;39.20;71.00;;;;;;5054184;28;20198;-78
2023/08/18 12:34:43;;;;;;;9.63;5.38;;;39.10;71.50;;;;;;5053956;28;20195;-78
2023/08/18 12:37:26;;;;;;;6.93;4.72;;;39.10;70.60;;;;;;5053967;28;20297;-80
2023/08/18 12:40:01;;;;;;;7.25;4.80;;;39.30;70.90;;;;;;5053743;28;20551;-85
2023/08/18 12:42:51;;;;;;;5.63;4.28;;;39.40;71.00;;;;;;5053767;28;20191;-78
2023/08/18 12:45:55;;;;;;;5.22;4.45;;;39.60;71.90;;;;;;5053237;28;20608;-76
2023/08/18 12:48:29;;;;;;;5.85;4.57;;;39.80;68.60;;;;;;5051881;28;20268;-80
2023/08/18 12:57:50;;;;;;;4.28;3.90;;;39.80;67.20;;;;;;5013298;28;20199;-88
2023/08/18 13:00:50;;;;;;;5.47;4.20;;;40.20;68.40;;;;;;4886297;28;20268;-88
2023/08/18 13:03:29;;;;;;;5.55;4.25;;;40.60;67.50;;;;;;4976731;28;20201;-86
2023/08/18 13:06:29;;;;;;;4.40;4.00;;;40.60;65.30;;;;;;5008521;28;20215;-87
2023/08/18 13:09:36;;;;;;;4.82;3.90;;;40.40;65.00;;;;;;4941377;28;20215;-89
2023/08/18 13:12:36;;;;;;;7.60;4.05;;;39.80;65.10;;;;;;4941185;28;20205;-87
2023/08/18 13:15:25;;;;;;;6.30;4.07;;;39.40;66.90;;;;;;4944246;28;20177;-81
2023/08/18 13:18:08;;;;;;;6.32;4.18;;;38.60;67.20;;;;;;4988842;28;20206;-80
2023/08/18 13:20:45;;;;;;;4.35;3.70;;;38.70;68.70;;;;;;4957018;28;20225;-82
2023/08/18 13:23:38;;;;;;;4.35;3.95;;;38.70;67.70;;;;;;4959714;28;20252;-80
2023/08/18 13:26:14;;;;;;;7.05;4.00;;;38.40;66.80;;;;;;4956580;28;20213;-81
2023/08/18 13:29:04;;;;;;;4.03;3.63;;;37.80;66.50;;;;;;4959799;28;20696;-81
2023/08/18 13:31:34;;;;;;;4.00;3.60;;;37.20;65.50;;;;;;4939831;28;20293;-80
2023/08/18 13:34:10;;;;;;;5.07;3.60;;;37.50;66.30;;;;;;4956711;28;20205;-80
2023/08/18 13:36:44;;;;;;;4.60;3.42;;;37.20;66.60;;;;;;4974245;28;20208;-78
2023/08/18 13:39:45;;;;;;;3.95;3.42;;;37.10;65.10;;;;;;4971950;28;20209;-88
2023/08/18 13:42:17;;;;;;;4.57;3.90;;;37.30;66.20;;;;;;4973293;28;20289;-82
2023/08/18 13:44:46;;;;;;;4.85;3.40;;;37.40;67.70;;;;;;4974182;28;20324;-79
2023/08/18 13:47:24;;;;;;;4.57;3.50;;;37.60;67.20;;;;;;4986825;28;20230;-78
2023/08/18 13:50:06;;;;;;;4.53;3.85;;;37.30;66.00;;;;;;4973943;28;20194;-79
2023/08/18 13:52:52;;;;;;;4.13;3.60;;;37.50;66.40;;;;;;4988105;28;20279;-78
2023/08/18 13:55:33;;;;;;;5.65;3.70;;;37.50;66.10;;;;;;4957457;28;20649;-85
2023/08/18 13:58:25;;;;;;;5.63;3.97;;;37.10;66.60;;;;;;4956496;28;20208;-86
2023/08/18 14:01:03;;;;;;;4.03;3.67;;;36.80;67.50;;;;;;4957046;28;20189;-85
2023/08/18 14:03:54;;;;;;;6.07;4.05;;;36.70;68.10;;;;;;4973550;28;20191;-86
2023/08/18 14:06:25;;;;;;;5.20;4.05;;;36.60;68.30;;;;;;4956350;28;20229;-87
2023/08/18 14:09:07;;;;;;;5.68;3.63;;;36.60;68.30;;;;;;4973747;28;20224;-85
2023/08/18 14:11:39;;;;;;;5.13;4.10;;;36.70;70.00;;;;;;4956286;28;20200;-80
2023/08/18 14:14:19;;;;;;;4.90;4.10;;;36.50;68.60;;;;;;4970638;28;20255;-81
2023/08/18 14:17:08;;;;;;;4.85;3.80;;;36.20;69.20;;;;;;4970594;28;20225;-79
2023/08/18 14:19:41;;;;;;;4.75;3.70;;;35.70;71.10;;;;;;4986820;28;20208;-80
2023/08/18 14:22:08;;;;;;;5.40;3.85;;;35.40;70.90;;;;;;4973567;28;20241;-80
2023/08/18 14:24:40;;;;;;;4.70;3.72;;;35.00;73.10;;;;;;4973283;28;20193;-85
2023/08/18 14:27:18;;;;;;;5.00;4.18;;;34.80;73.30;;;;;;4973281;28;20727;-85
2023/08/18 15:44:57;;;;;;;;;;;;;;;;;;;;;
2023/08/18 15:52:16;;;;;;;6.88;4.63;;;25.70;99.90;;;;;;4843668;29;20716;-87
2023/08/18 15:55:43;;;;;;;;;;;;;;;;;;;;;
2023/08/18 15:59:19;;;;;;;6.00;4.20;;;25.70;99.90;;;;;;4796993;29;20635;-79
2023/08/18 16:02:40;;;;;;;;;;;;;;;;;;;;;
2023/08/18 16:18:15;;;;;;;5.60;4.63;;;25.10;99.90;;;;;;5004196;28;20203;-86
2023/08/18 16:26:41;;;;;;;5.72;4.53;;;24.80;99.90;;;;;;6040067;22;20385;-81
2023/08/18 17:21:01;;;;;;;6.75;5.50;;;24.20;99.90;;;;;;4922737;29;20295;-83
2023/08/18 17:23:31;;;;;;;7.35;5.35;;;24.10;99.90;;;;;;4904463;29;20310;-83
2023/08/18 17:26:24;;;;;;;;;;;;;;;;;;;;;
2023/08/18 17:29:46;;;;;;;6.50;5.40;;;24.10;99.90;;;;;;4824277;29;20209;-81
2023/08/18 17:33:28;;;;;;;7.85;5.80;;;24.00;99.90;;;;;;4867292;29;20236;-84
2023/08/18 17:36:00;;;;;;;6.72;5.65;;;24.00;99.90;;;;;;4878348;29;20200;-78
2023/08/18 17:38:52;;;;;;;6.57;5.70;;;24.00;99.90;;;;;;4878143;29;20284;-78
2023/08/18 17:41:32;;;;;;;6.97;5.75;;;24.10;99.90;;;;;;4878207;29;20291;-78
2023/08/18 17:44:07;;;;;;;7.03;5.93;;;24.20;99.90;;;;;;4878194;29;20243;-78
2023/08/18 17:46:36;;;;;;;7.07;5.87;;;24.00;99.90;;;;;;4878076;29;20197;-79
2023/08/18 17:49:08;;;;;;;8.05;5.75;;;24.10;99.90;;;;;;4861526;29;20246;-78
2023/08/18 17:51:39;;;;;;;7.63;6.15;;;24.10;99.90;;;;;;4862759;29;20803;-78
2023/08/18 17:54:07;;;;;;;8.05;6.55;;;24.10;99.90;;;;;;4877818;29;20238;-77
2023/08/18 17:56:37;;;;;;;11.38;6.47;;;24.10;99.90;;;;;;4882073;29;20770;-80
2023/08/18 17:59:15;;;;;;;8.80;6.40;;;24.10;99.90;;;;;;4908857;29;20319;-83
2023/08/18 18:01:51;;;;;;;9.17;6.57;;;24.10;99.90;;;;;;4939303;29;20201;-81
2023/08/18 18:04:21;;;;;;;6.90;6.20;;;24.00;99.90;;;;;;4938156;29;20292;-82
2023/08/18 18:06:59;;;;;;;7.78;6.35;;;24.00;99.90;;;;;;4940269;29;20297;-82
2023/08/18 18:09:31;;;;;;;8.33;6.13;;;24.00;99.90;;;;;;4938668;29;20198;-83
2023/08/18 18:12:00;;;;;;;9.55;6.50;;;24.00;99.90;;;;;;4938399;29;20379;-83
2023/08/18 18:14:27;;;;;;;8.82;6.53;;;23.90;99.90;;;;;;4937654;29;20293;-82
2023/08/18 18:16:55;;;;;;;8.03;6.77;;;23.90;99.90;;;;;;4938372;29;20206;-81
2023/08/18 18:19:30;;;;;;;9.73;6.80;;;23.80;99.90;;;;;;4939074;29;20194;-84
2023/08/18 18:22:07;;;;;;;8.50;7.13;;;23.80;99.90;;;;;;4939514;29;20237;-83
2023/08/18 18:24:34;;;;;;;8.03;6.83;;;23.70;99.90;;;;;;4938795;29;20194;-83
2023/08/18 18:27:10;;;;;;;7.55;6.63;;;23.70;99.90;;;;;;4938717;29;20217;-83
2023/08/18 18:29:42;;;;;;;10.37;7.37;;;23.70;99.90;;;;;;4937774;29;20201;-83
2023/08/18 18:32:13;;;;;;;8.25;6.88;;;23.60;99.90;;;;;;4955674;29;20218;-83
2023/08/18 18:34:46;;;;;;;10.33;7.20;;;23.50;99.90;;;;;;4954179;28;20198;-82
2023/08/18 18:37:27;;;;;;;9.00;8.07;;;23.50;99.90;;;;;;4953906;29;20232;-82
2023/08/18 18:39:55;;;;;;;9.60;7.63;;;23.50;99.90;;;;;;4955181;29;20523;-81
2023/08/18 18:42:22;;;;;;;8.43;7.50;;;23.30;99.90;;;;;;4955439;29;20198;-80
2023/08/18 18:44:50;;;;;;;9.27;7.57;;;23.20;99.90;;;;;;4955010;29;20245;-79
2023/08/18 18:47:18;;;;;;;10.20;7.40;;;23.20;99.90;;;;;;4955237;29;20257;-75
2023/08/18 18:49:47;;;;;;;9.57;7.90;;;23.10;99.90;;;;;;4955213;29;20198;-73
2023/08/18 18:52:16;;;;;;;10.35;7.93;;;23.00;99.90;;;;;;4954762;29;20690;-74
2023/08/18 18:54:43;;;;;;;9.53;7.90;;;23.00;99.90;;;;;;4955154;29;20210;-73
2023/08/18 18:57:10;;;;;;;9.70;7.73;;;23.00;99.90;;;;;;4955167;29;20206;-73
2023/08/18 18:59:38;;;;;;;9.43;7.63;;;22.90;99.90;;;;;;4954597;29;20595;-74
2023/08/18 19:02:05;;;;;;;9.57;7.73;;;22.90;99.90;;;;;;4954446;29;20202;-74
2023/08/18 19:04:33;;;;;;;12.07;8.67;;;22.80;99.90;;;;;;4955326;29;20265;-71
2023/08/18 19:07:00;;;;;;;10.87;8.10;;;22.80;99.90;;;;;;4954449;29;20222;-71
2023/08/18 19:09:27;;;;;;;9.53;8.20;;;22.80;99.90;;;;;;4954294;29;20658;-73
2023/08/18 19:11:54;;;;;;;10.00;8.35;;;22.80;99.90;;;;;;4954829;29;20221;-74
2023/08/18 19:14:21;;;;;;;11.47;8.30;;;22.70;99.90;;;;;;4954036;29;20249;-73
2023/08/18 19:16:49;;;;;;;10.60;8.33;;;22.70;99.90;;;;;;4954532;29;20238;-74
2023/08/18 19:19:16;;;;;;;9.73;8.27;;;22.70;99.90;;;;;;4954661;29;20198;-73
2023/08/18 19:21:44;;;;;;;10.50;8.10;;;22.70;99.90;;;;;;4954428;29;20268;-73
2023/08/18 19:24:11;;;;;;;10.53;8.03;;;22.70;99.90;;;;;;4954654;29;20281;-73
2023/08/18 19:26:38;;;;;;;12.50;9.10;;;22.60;99.90;;;;;;4954252;29;20588;-74
2023/08/18 19:29:06;;;;;;;9.67;8.20;;;22.60;99.90;;;;;;4953998;29;20218;-72
2023/08/18 19:31:33;;;;;;;9.93;8.13;;;22.60;99.90;;;;;;4954516;29;20222;-81
2023/08/18 19:34:00;;;;;;;9.60;7.93;;;22.60;99.90;;;;;;4954221;29;20202;-80
2023/08/18 19:36:27;;;;;;;11.60;8.97;;;22.50;99.90;;;;;;4954207;29;20716;-82
2023/08/18 19:38:56;;;;;;;12.50;9.07;;;22.60;99.90;;;;;;4954042;29;20739;-81
2023/08/18 19:41:23;;;;;;;11.10;9.17;;;22.60;99.90;;;;;;4953943;29;20335;-81
2023/08/18 19:43:53;;;;;;;9.93;8.63;;;22.60;99.90;;;;;;4953737;29;20206;-82
2023/08/18 19:46:22;;;;;;;10.57;8.80;;;22.50;99.90;;;;;;4953581;28;20209;-80
2023/08/18 19:48:49;;;;;;;12.23;9.40;;;22.50;99.90;;;;;;4954630;29;20202;-73
2023/08/18 19:51:17;;;;;;;11.67;9.23;;;22.60;99.90;;;;;;4953593;29;20196;-73
2023/08/18 19:53:44;;;;;;;10.93;9.03;;;22.50;99.90;;;;;;4953877;29;20274;-73
2023/08/18 19:56:13;;;;;;;10.07;8.50;;;22.50;99.90;;;;;;4953504;29;20725;-73
2023/08/18 19:58:40;;;;;;;11.57;9.10;;;22.50;99.90;;;;;;4953850;29;20280;-80
2023/08/18 20:01:07;;;;;;;12.03;8.97;;;22.60;99.90;;;;;;4953812;29;20207;-78
2023/08/18 20:03:35;;;;;;;12.17;9.37;;;22.50;99.90;;;;;;4936273;29;20569;-79
2023/08/18 20:06:03;;;;;;;11.60;9.17;;;22.50;99.90;;;;;;4953511;29;20265;-81
2023/08/18 20:08:31;;;;;;;10.37;8.97;;;22.50;99.90;;;;;;4953921;29;20221;-81
2023/08/18 20:10:58;;;;;;;10.83;9.20;;;22.60;99.90;;;;;;4953692;29;20245;-81
2023/08/18 20:13:25;;;;;;;12.00;9.30;;;22.60;99.90;;;;;;4953834;29;20273;-71
2023/08/18 20:15:54;;;;;;;11.90;9.90;;;22.60;99.90;;;;;;4953321;29;20294;-79
2023/08/18 20:18:21;;;;;;;13.50;9.43;;;22.60;99.90;;;;;;4937242;29;20258;-71
2023/08/18 20:20:48;;;;;;;11.90;9.77;;;22.60;99.90;;;;;;4953977;29;20202;-70
2023/08/18 20:23:16;;;;;;;10.93;9.63;;;22.60;99.90;;;;;;4953884;29;20218;-74
2023/08/18 20:25:43;;;;;;;14.30;10.30;;;22.70;99.90;;;;;;4954138;29;20234;-79
2023/08/18 20:28:10;;;;;;;11.60;9.50;;;22.70;99.90;;;;;;4953685;29;20186;-73
2023/08/18 20:30:42;;;;;;;12.10;9.37;;;22.70;99.90;;;;;;4953199;29;20614;-72
2023/08/18 20:33:10;;;;;;;11.60;9.70;;;22.60;99.90;;;;;;4953546;29;20247;-74
2023/08/18 20:35:37;;;;;;;12.93;9.97;;;22.60;99.90;;;;;;4953316;29;20210;-73
2023/08/18 20:38:04;;;;;;;11.77;9.67;;;22.50;99.90;;;;;;4952850;29;20296;-72
2023/08/18 20:40:59;;;;;;;11.27;9.75;;;22.60;99.90;;;;;;4952094;29;20261;-81
2023/08/18 20:43:40;;;;;;;11.70;9.87;;;22.60;99.90;;;;;;4937764;29;20190;-81
2023/08/18 20:46:25;;;;;;;13.30;10.47;;;22.50;99.90;;;;;;4934845;29;20229;-81
2023/08/18 20:49:18;;;;;;;12.70;10.03;;;22.60;99.90;;;;;;4951981;29;20314;-81
2023/08/18 20:52:22;;;;;;;12.13;9.20;;;22.50;99.90;;;;;;4858963;29;20248;-82
2023/08/18 20:55:28;;;;;;;;;;;;;;;;;;;;;
2023/08/18 20:58:18;;;;;;;13.67;10.83;;;22.50;99.90;;;;;;4875787;29;20356;-79
2023/08/18 21:01:43;;;;;;;11.53;9.63;;;22.50;99.90;;;;;;4849055;29;20353;-82
2023/08/18 21:04:23;;;;;;;11.40;9.77;;;22.60;99.90;;;;;;4844763;29;20206;-82
2023/08/18 21:06:59;;;;;;;12.83;10.67;;;22.50;99.90;;;;;;4844640;29;20240;-83
2023/08/18 21:09:33;;;;;;;12.97;10.33;;;22.50;99.90;;;;;;4885159;29;20254;-80
2023/08/18 21:12:12;;;;;;;12.67;10.00;;;22.60;99.90;;;;;;4937438;29;20678;-81
2023/08/18 21:14:49;;;;;;;13.73;10.87;;;22.50;99.90;;;;;;4920001;29;20234;-81
2023/08/18 21:17:25;;;;;;;12.43;10.17;;;22.50;99.90;;;;;;4920604;29;20293;-80
2023/08/18 21:23:48;;;;;;;15.67;9.93;;;22.50;99.90;;;;;;4999151;23;20246;-81
2023/08/18 21:27:15;;;;;;;12.63;10.57;;;22.70;99.90;;;;;;4940403;29;20654;-80
2023/08/18 21:30:25;;;;;;;13.00;10.40;;;22.60;99.90;;;;;;4955972;29;20206;-82
2023/08/18 21:33:40;;;;;;;11.20;10.00;;;22.50;99.90;;;;;;4880885;29;20235;-81
2023/08/18 21:36:24;;;;;;;12.03;10.07;;;22.50;99.90;;;;;;4880133;29;20541;-80
2023/08/18 21:39:07;;;;;;;11.80;9.87;;;22.50;99.90;;;;;;4877632;29;20236;-80
2023/08/18 21:41:54;;;;;;;13.13;10.47;;;22.40;99.90;;;;;;4875012;29;20296;-80
2023/08/18 21:45:23;;;;;;;;;;;;;;;;;;;;;
2023/08/18 21:48:20;;;;;;;12.57;10.43;;;22.40;99.90;;;;;;4803254;29;20215;-80
2023/08/18 21:51:02;;;;;;;13.00;10.70;;;22.40;99.90;;;;;;4789376;29;20215;-80
2023/08/18 21:53:37;;;;;;;13.33;11.20;;;22.40;99.90;;;;;;4802941;29;20239;-80
2023/08/18 21:56:23;;;;;;;16.80;11.10;;;22.40;99.90;;;;;;4803932;29;20660;-80
2023/08/18 21:59:36;;;;;;;11.83;10.20;;;22.30;99.90;;;;;;4801909;29;20215;-81
2023/08/18 22:02:28;;;;;;;13.73;10.43;;;22.40;99.90;;;;;;4804212;29;20205;-81
2023/08/18 22:05:31;;;;;;;12.17;10.60;;;22.40;99.90;;;;;;4777906;30;20205;-82
2023/08/18 22:20:30;;;;;;;12.53;10.63;;;22.30;99.90;;;;;;4717725;30;20202;-79
2023/08/18 22:23:09;;;;;;;12.63;10.63;;;22.30;99.90;;;;;;4717707;30;20242;-77
2023/08/18 22:25:38;;;;;;;14.60;10.53;;;22.30;99.90;;;;;;4698421;30;20656;-77
2023/08/18 22:28:10;;;;;;;11.37;10.03;;;22.20;99.90;;;;;;4698032;30;20295;-76
2023/08/18 22:30:50;;;;;;;12.97;10.20;;;22.10;99.90;;;;;;4710895;30;20514;-78
2023/08/18 22:33:22;;;;;;;13.07;11.07;;;22.10;99.90;;;;;;4715196;30;20246;-78
2023/08/18 22:35:58;;;;;;;11.90;10.37;;;22.10;99.90;;;;;;4714961;30;20248;-78
2023/08/18 22:38:24;;;;;;;16.77;11.43;;;22.00;99.90;;;;;;4685988;30;20207;-78
2023/08/18 22:41:00;;;;;;;13.60;11.27;;;22.00;99.90;;;;;;4700292;30;20198;-79
2023/08/18 22:43:48;;;;;;;12.97;10.63;;;21.90;99.90;;;;;;4700300;30;20207;-77
2023/08/18 22:46:19;;;;;;;12.43;10.03;;;21.90;99.90;;;;;;4737569;30;20215;-81
2023/08/18 22:48:51;;;;;;;13.57;10.83;;;21.90;99.90;;;;;;4785582;29;20294;-86
2023/08/18 22:51:22;;;;;;;12.47;10.63;;;21.80;99.90;;;;;;4786395;29;20328;-79
2023/08/18 22:53:54;;;;;;;13.33;10.90;;;21.90;99.90;;;;;;4803510;29;20322;-85
2023/08/18 22:56:27;;;;;;;12.37;10.63;;;21.80;99.90;;;;;;4815383;29;20258;-83
2023/08/18 22:59:09;;;;;;;13.57;10.77;;;21.80;99.90;;;;;;4935912;29;20576;-83
2023/08/18 23:01:56;;;;;;;11.93;10.63;;;21.80;99.90;;;;;;4882001;29;20256;-82
2023/08/18 23:13:02;;;;;;;14.37;11.20;;;21.80;99.90;;;;;;4854243;29;20244;-83
2023/08/18 23:32:27;;;;;;;15.40;11.37;;;21.70;99.90;;;;;;4781105;29;20257;-83
2023/08/18 23:35:10;;;;;;;13.70;11.37;;;21.70;99.90;;;;;;4767321;30;20223;-81
2023/08/18 23:38:08;;;;;;;13.43;11.23;;;21.70;99.90;;;;;;4751321;30;20232;-82
2023/08/18 23:41:28;;;;;;;13.43;11.10;;;21.70;99.90;;;;;;4752054;30;20303;-82
2023/08/18 23:44:51;;;;;;;14.37;11.37;;;21.70;99.90;;;;;;4754255;30;20216;-83
2023/08/18 23:47:36;;;;;;;13.97;11.20;;;21.70;99.90;;;;;;4767340;30;20239;-83
2023/08/18 23:50:20;;;;;;;15.07;11.70;;;21.70;99.90;;;;;;4772582;29;20668;-81
2023/08/18 23:53:03;;;;;;;14.80;11.67;;;21.70;99.90;;;;;;4769198;30;20240;-82
2023/08/18 23:55:42;;;;;;;14.47;11.73;;;21.70;99.90;;;;;;4784166;29;20208;-79
2023/08/18 23:58:53;;;;;;;13.63;12.10;;;21.70;99.90;;;;;;4768016;30;20354;-79
